X  Sluiten METAR luchtvaart weer gegevens      LZPP Piešťany Airport
Temperatuur
13°C Temperatuur
12°C Dauwpunt
94% Vochtigheid



Wind
13 KM/U
8 MPH
4 M/S
7 KTS



350°
N
Huidig weer

Helder Helder
Luchtdruk 1010.84 (hPa) - 29.85 (inHg)
Zicht 6 (mijl) - 9.7 (km)
Vliegveld
Vliegveld code LZPP

Locatie : Piešťany Airport
Afstand: 31 (km)

Metar:
LZPP 190330Z 35007KT CAVOK 13/12 Q1011

Tijd: 19-05-2024 05:30 CEST